Time;durP1;ratioP1;P1;durP2;ratioP2;P2;SDS_P1;SDS_P2;PMS_P1;PMS_P2;Temp;Humidity;BMP_temperature;BMP_pressure;BME280_temperature;BME280_humidity;BME280_pressure;Samples;Min_cycle;Max_cycle;Signal;HPM_P1;HPM_P2
2023/04/06 00:01:37;;;;;;;8.10;4.53;;;4.70;99.90;;;;;;5096930;28;20055;-82
2023/04/06 00:04:02;;;;;;;10.40;4.50;;;4.70;99.90;;;;;;5096625;28;20043;-82
2023/04/06 00:06:28;;;;;;;8.60;4.85;;;4.60;99.90;;;;;;5079751;28;20378;-82
2023/04/06 00:08:55;;;;;;;9.10;4.63;;;4.60;99.90;;;;;;5096415;28;20051;-82
2023/04/06 00:11:21;;;;;;;6.63;4.20;;;4.60;99.90;;;;;;5096599;28;20046;-82
2023/04/06 00:13:46;;;;;;;8.98;5.20;;;4.60;99.90;;;;;;5096137;28;20036;-82
2023/04/06 00:16:12;;;;;;;9.27;4.47;;;4.60;99.90;;;;;;5096359;28;20042;-82
2023/04/06 00:18:38;;;;;;;8.67;4.97;;;4.50;99.90;;;;;;5061679;28;20285;-82
2023/04/06 00:21:04;;;;;;;6.33;4.43;;;4.50;99.90;;;;;;5078622;28;20835;-82
2023/04/06 00:23:30;;;;;;;7.47;4.38;;;4.50;99.90;;;;;;5096792;28;20036;-82
2023/04/06 00:25:56;;;;;;;12.05;4.78;;;4.50;99.90;;;;;;5095950;28;20065;-82
2023/04/06 00:28:25;;;;;;;7.18;4.57;;;4.40;99.90;;;;;;5079287;28;20043;-82
2023/04/06 00:30:55;;;;;;;7.85;4.40;;;4.40;99.90;;;;;;5080080;28;20039;-82
2023/04/06 00:33:21;;;;;;;8.05;4.57;;;4.40;99.90;;;;;;5063607;28;20673;-82
2023/04/06 00:35:47;;;;;;;6.65;4.40;;;4.40;99.90;;;;;;5079242;28;20105;-83
2023/04/06 00:38:14;;;;;;;8.50;4.70;;;4.30;99.90;;;;;;5112785;28;20399;-82
2023/04/06 00:40:40;;;;;;;10.88;5.18;;;4.30;99.90;;;;;;5096057;28;20042;-82
2023/04/06 00:43:06;;;;;;;7.45;4.47;;;4.30;99.90;;;;;;5095685;28;20403;-82
2023/04/06 00:45:33;;;;;;;8.15;4.13;;;4.30;99.90;;;;;;5079291;28;20089;-82
2023/04/06 00:47:59;;;;;;;10.45;4.60;;;4.30;99.90;;;;;;5095689;28;20047;-82
2023/04/06 00:50:25;;;;;;;5.72;4.75;;;4.20;99.90;;;;;;5095511;28;20070;-82
2023/04/06 00:52:51;;;;;;;7.68;4.55;;;4.20;99.90;;;;;;5079098;28;20569;-82
2023/04/06 00:55:17;;;;;;;8.85;4.30;;;4.20;99.90;;;;;;5112210;28;20069;-82
2023/04/06 00:57:43;;;;;;;9.40;4.45;;;4.20;99.90;;;;;;5095457;28;20036;-82
2023/04/06 01:00:09;;;;;;;7.18;4.55;;;4.20;99.90;;;;;;5060201;28;20059;-82
2023/04/06 01:02:36;;;;;;;8.80;5.45;;;4.10;99.90;;;;;;5095480;28;20071;-82
2023/04/06 01:05:02;;;;;;;8.27;4.55;;;4.10;99.90;;;;;;5092880;28;20050;-82
2023/04/06 01:07:27;;;;;;;7.72;4.85;;;4.10;99.90;;;;;;5078163;28;20035;-82
2023/04/06 01:09:56;;;;;;;7.03;4.20;;;4.00;99.90;;;;;;5112010;28;20046;-82
2023/04/06 01:12:22;;;;;;;6.10;4.43;;;4.00;99.90;;;;;;5094649;28;20043;-82
2023/04/06 01:14:48;;;;;;;5.95;4.40;;;4.00;99.90;;;;;;5094769;28;20478;-82
2023/04/06 01:17:14;;;;;;;8.85;4.90;;;4.00;99.90;;;;;;5112008;28;20549;-82
2023/04/06 01:19:44;;;;;;;8.02;4.55;;;4.00;99.90;;;;;;5095087;28;20036;-82
2023/04/06 01:22:17;;;;;;;6.40;4.78;;;4.00;99.90;;;;;;5111868;28;20093;-82
2023/04/06 01:24:43;;;;;;;6.03;4.43;;;4.00;99.90;;;;;;5094904;28;20088;-82
2023/04/06 01:27:09;;;;;;;8.70;4.95;;;4.00;99.90;;;;;;5061132;28;20047;-82
2023/04/06 01:29:35;;;;;;;7.63;4.72;;;4.00;99.90;;;;;;5095045;28;20038;-82
2023/04/06 01:32:00;;;;;;;9.50;5.03;;;3.90;99.90;;;;;;5078918;28;20078;-82
2023/04/06 01:34:26;;;;;;;8.20;4.80;;;3.90;99.90;;;;;;5094212;28;20063;-82
2023/04/06 01:36:52;;;;;;;6.43;4.50;;;3.90;99.90;;;;;;5078403;28;20043;-82
2023/04/06 01:39:18;;;;;;;6.13;4.25;;;3.90;99.90;;;;;;5094772;28;20035;-82
2023/04/06 01:41:44;;;;;;;9.18;4.85;;;3.90;99.90;;;;;;5060384;28;20515;-82
2023/04/06 01:44:10;;;;;;;8.90;4.47;;;3.90;99.90;;;;;;5094146;28;20036;-82
2023/04/06 01:46:36;;;;;;;7.90;4.53;;;3.80;99.90;;;;;;5077909;28;20043;-82
2023/04/06 01:49:01;;;;;;;10.00;5.00;;;3.80;99.90;;;;;;5061125;28;20129;-82
2023/04/06 01:51:27;;;;;;;8.30;5.17;;;3.80;99.90;;;;;;5094568;28;20123;-82
2023/04/06 01:53:53;;;;;;;10.00;5.32;;;3.80;99.90;;;;;;5111466;28;20041;-82
2023/04/06 01:56:19;;;;;;;9.50;4.77;;;3.70;99.90;;;;;;5094155;28;20046;-82
2023/04/06 01:58:45;;;;;;;;;;;3.70;99.90;;;;;;5095340;28;20762;-82
2023/04/06 02:01:11;;;;;;;8.98;5.10;;;3.70;99.90;;;;;;5095024;28;19922;-82
2023/04/06 02:03:37;;;;;;;9.88;5.30;;;3.70;99.90;;;;;;5095294;28;20075;-83
2023/04/06 02:06:03;;;;;;;8.43;5.13;;;3.60;99.90;;;;;;5060850;28;20510;-82
2023/04/06 02:08:29;;;;;;;7.47;5.18;;;3.60;99.90;;;;;;5095027;28;20361;-82
2023/04/06 02:10:55;;;;;;;9.02;5.25;;;3.50;99.90;;;;;;5078179;28;20231;-82
2023/04/06 02:13:20;;;;;;;9.32;5.43;;;3.60;99.90;;;;;;5094789;28;20031;-82
2023/04/06 02:15:46;;;;;;;8.55;5.65;;;3.50;99.90;;;;;;5094723;28;20043;-82
2023/04/06 02:18:12;;;;;;;11.27;5.57;;;3.60;99.90;;;;;;5077911;28;20495;-82
2023/04/06 02:20:37;;;;;;;9.20;5.50;;;3.50;99.90;;;;;;5094221;28;20150;-81
2023/04/06 02:23:03;;;;;;;10.53;6.00;;;3.50;99.90;;;;;;5060177;28;20277;-82
2023/04/06 02:25:29;;;;;;;11.00;6.50;;;3.50;99.90;;;;;;5094459;28;20372;-82
2023/04/06 02:27:55;;;;;;;11.43;6.33;;;3.40;99.90;;;;;;5077877;28;20274;-82
2023/04/06 02:30:20;;;;;;;10.30;5.60;;;3.40;99.90;;;;;;5094519;28;20495;-82
2023/04/06 02:32:46;;;;;;;10.60;5.60;;;3.40;99.90;;;;;;5111900;28;20387;-82
2023/04/06 02:35:12;;;;;;;8.85;5.78;;;3.40;99.90;;;;;;5076941;28;20048;-82
2023/04/06 02:37:37;;;;;;;10.63;5.78;;;3.30;99.90;;;;;;5077683;28;20028;-82
2023/04/06 02:40:04;;;;;;;10.17;5.80;;;3.30;99.90;;;;;;5094899;28;20032;-82
2023/04/06 02:42:30;;;;;;;10.63;5.80;;;3.30;99.90;;;;;;5060324;28;20066;-82
2023/04/06 02:44:55;;;;;;;10.55;6.35;;;3.30;99.90;;;;;;5111045;28;20502;-82
2023/04/06 02:47:21;;;;;;;12.03;5.97;;;3.30;99.90;;;;;;5094595;28;20044;-82
2023/04/06 02:49:47;;;;;;;9.70;5.88;;;3.30;99.90;;;;;;5111027;28;20286;-82
2023/04/06 02:52:12;;;;;;;11.43;6.20;;;3.30;99.90;;;;;;5094319;28;20036;-82
2023/04/06 02:54:38;;;;;;;10.67;5.93;;;3.30;99.90;;;;;;5077399;28;20487;-82
2023/04/06 02:57:05;;;;;;;10.37;5.90;;;3.20;99.90;;;;;;5111419;28;20278;-82
2023/04/06 02:59:31;;;;;;;11.60;6.03;;;3.20;99.90;;;;;;5092054;28;20072;-82
2023/04/06 03:01:57;;;;;;;9.90;5.68;;;3.20;99.90;;;;;;5093361;28;20036;-82
2023/04/06 03:04:25;;;;;;;12.27;6.37;;;3.20;99.90;;;;;;5074225;28;20102;-82
2023/04/06 03:06:51;;;;;;;9.30;5.45;;;3.20;99.90;;;;;;5060799;28;20807;-82
2023/04/06 03:09:17;;;;;;;8.90;5.75;;;3.10;99.90;;;;;;5092924;28;20050;-82
2023/04/06 03:11:42;;;;;;;10.80;5.68;;;3.10;99.90;;;;;;5076291;28;20487;-82
2023/04/06 03:14:08;;;;;;;10.55;5.82;;;3.10;99.90;;;;;;5093139;28;20066;-82
2023/04/06 03:16:34;;;;;;;8.80;5.30;;;3.10;99.90;;;;;;5094310;28;20435;-82
2023/04/06 03:19:00;;;;;;;9.25;5.50;;;3.10;99.90;;;;;;5080575;28;20050;-82
2023/04/06 03:21:25;;;;;;;9.25;5.07;;;3.10;99.90;;;;;;5080125;28;20119;-82
2023/04/06 03:23:51;;;;;;;10.35;5.40;;;3.10;99.90;;;;;;5097053;28;20070;-82
2023/04/06 03:26:17;;;;;;;10.32;5.63;;;3.10;99.90;;;;;;5097421;28;20027;-82
2023/04/06 03:28:43;;;;;;;9.52;5.82;;;3.00;99.90;;;;;;5097440;28;20051;-82
2023/04/06 03:31:09;;;;;;;10.40;6.13;;;3.00;99.90;;;;;;5114181;28;20036;-81
2023/04/06 03:33:34;;;;;;;9.03;5.43;;;3.00;99.90;;;;;;5114185;28;20289;-82
2023/04/06 03:36:00;;;;;;;8.45;5.85;;;3.00;99.90;;;;;;5096735;28;20055;-82
2023/04/06 03:38:26;;;;;;;7.70;5.43;;;2.90;99.90;;;;;;5097030;28;20463;-82
2023/04/06 03:40:52;;;;;;;10.30;6.40;;;2.90;99.90;;;;;;5097130;28;20070;-82
2023/04/06 03:43:17;;;;;;;9.40;6.17;;;3.10;99.90;;;;;;5097086;28;20094;-82
2023/04/06 03:45:43;;;;;;;9.53;5.27;;;2.80;99.90;;;;;;5097075;28;20396;-82
2023/04/06 03:48:09;;;;;;;11.30;5.80;;;2.80;99.90;;;;;;5096997;28;20042;-82
2023/04/06 03:50:34;;;;;;;13.13;5.88;;;2.80;99.90;;;;;;5113781;28;20055;-82
2023/04/06 03:53:02;;;;;;;8.13;5.22;;;2.80;99.90;;;;;;5096787;28;20421;-82
2023/04/06 03:55:28;;;;;;;10.25;5.50;;;2.80;99.90;;;;;;5096769;28;20398;-81
2023/04/06 03:57:54;;;;;;;8.40;5.63;;;2.80;99.90;;;;;;5079921;28;20398;-82
2023/04/06 04:00:20;;;;;;;8.85;5.30;;;2.70;99.90;;;;;;5079429;28;20119;-82
2023/04/06 04:02:46;;;;;;;10.00;5.90;;;2.70;99.90;;;;;;5079666;28;20077;-82
2023/04/06 04:05:12;;;;;;;9.68;6.60;;;2.70;99.90;;;;;;5097128;28;20133;-82
2023/04/06 04:07:37;;;;;;;10.00;5.30;;;2.70;99.90;;;;;;5062175;28;20055;-82
2023/04/06 04:10:04;;;;;;;10.20;5.30;;;2.70;99.90;;;;;;5096196;28;20047;-82
2023/04/06 04:12:29;;;;;;;10.85;5.13;;;2.70;99.90;;;;;;5078846;28;20483;-82
2023/04/06 04:14:55;;;;;;;8.02;5.32;;;2.60;99.90;;;;;;5096225;28;20063;-82
2023/04/06 04:17:21;;;;;;;9.53;5.33;;;2.60;99.90;;;;;;5080152;28;20052;-82
2023/04/06 04:19:47;;;;;;;10.75;5.63;;;2.60;99.90;;;;;;5113570;28;20031;-81
2023/04/06 04:22:13;;;;;;;8.95;5.70;;;2.50;99.90;;;;;;5114158;28;20085;-81
2023/04/06 04:24:39;;;;;;;9.53;5.10;;;2.50;99.90;;;;;;5115120;28;20050;-81
2023/04/06 04:27:05;;;;;;;10.45;5.50;;;2.50;99.90;;;;;;5078125;28;20277;-82
2023/04/06 04:29:31;;;;;;;10.75;5.18;;;2.50;99.90;;;;;;5096982;28;20031;-79
2023/04/06 04:31:56;;;;;;;10.32;5.88;;;2.50;99.90;;;;;;5112512;28;20372;-81
2023/04/06 04:34:25;;;;;;;8.77;5.70;;;2.40;99.90;;;;;;5111095;28;20082;-78
2023/04/06 04:36:52;;;;;;;8.20;5.20;;;2.50;99.90;;;;;;5060352;28;20405;-78
2023/04/06 04:39:18;;;;;;;;;;;2.40;99.90;;;;;;5095977;28;20031;-78
2023/04/06 04:41:43;;;;;;;11.68;6.43;;;2.40;99.90;;;;;;5111946;28;20367;-79
2023/04/06 04:44:09;;;;;;;9.43;5.70;;;2.40;99.90;;;;;;5094748;28;20074;-78
2023/04/06 04:46:35;;;;;;;8.98;6.07;;;2.30;99.90;;;;;;5111932;28;20040;-78
2023/04/06 04:49:01;;;;;;;9.00;5.27;;;2.30;99.90;;;;;;5095232;28;20044;-79
2023/04/06 04:51:26;;;;;;;9.93;5.45;;;2.30;99.90;;;;;;5111611;28;20702;-80
2023/04/06 04:53:52;;;;;;;12.38;6.10;;;2.30;99.90;;;;;;5111778;28;20552;-79
2023/04/06 04:56:18;;;;;;;14.52;5.78;;;2.30;99.90;;;;;;5112945;28;20047;-80
2023/04/06 04:58:43;;;;;;;9.13;5.37;;;2.30;99.90;;;;;;5094614;28;20088;-79
2023/04/06 05:01:09;;;;;;;7.43;5.23;;;2.30;99.90;;;;;;5111815;28;20282;-79
2023/04/06 05:03:38;;;;;;;10.18;5.88;;;2.30;99.90;;;;;;5093081;28;20079;-79
2023/04/06 05:06:04;;;;;;;12.75;6.13;;;2.20;99.90;;;;;;5109196;28;20027;-79
2023/04/06 05:08:30;;;;;;;;;;;2.20;99.90;;;;;;5109765;28;20035;-79
2023/04/06 05:10:56;;;;;;;12.80;5.75;;;2.20;99.90;;;;;;5110212;28;19919;-79
2023/04/06 05:13:22;;;;;;;10.80;5.80;;;2.20;99.90;;;;;;5093044;28;20039;-80
2023/04/06 05:15:48;;;;;;;9.23;5.03;;;2.20;99.90;;;;;;5110294;28;20509;-79
2023/04/06 05:18:14;;;;;;;8.93;5.78;;;2.20;99.90;;;;;;5110528;28;20036;-79
2023/04/06 05:20:40;;;;;;;9.50;6.05;;;2.20;99.90;;;;;;5110120;28;20039;-79
2023/04/06 05:23:06;;;;;;;9.05;5.03;;;2.30;99.90;;;;;;5093712;28;20032;-79
2023/04/06 05:25:32;;;;;;;10.07;5.00;;;2.30;99.90;;;;;;5109547;28;20036;-79
2023/04/06 05:27:57;;;;;;;11.35;4.95;;;2.30;99.90;;;;;;5110099;28;20039;-80
2023/04/06 05:30:23;;;;;;;11.00;5.57;;;2.30;99.90;;;;;;5075628;28;20043;-79
2023/04/06 05:32:50;;;;;;;9.38;5.80;;;2.40;99.90;;;;;;5076134;28;20036;-79
2023/04/06 05:35:16;;;;;;;11.13;5.40;;;2.40;99.90;;;;;;5075873;28;20130;-80
2023/04/06 05:37:43;;;;;;;9.27;5.97;;;2.30;99.90;;;;;;5076103;28;20047;-79
2023/04/06 05:40:09;;;;;;;7.45;5.25;;;2.40;99.90;;;;;;5092388;28;20386;-80
2023/04/06 05:42:39;;;;;;;9.57;5.63;;;2.40;99.90;;;;;;5109447;28;20040;-80
2023/04/06 05:45:06;;;;;;;9.32;5.70;;;2.50;99.90;;;;;;5109887;28;20475;-80
2023/04/06 05:47:32;;;;;;;9.52;5.57;;;2.50;99.90;;;;;;5092212;28;20043;-79
2023/04/06 05:49:57;;;;;;;10.15;6.00;;;2.50;99.90;;;;;;5092878;28;20043;-80
2023/04/06 05:52:23;;;;;;;10.93;5.88;;;2.60;99.90;;;;;;5092792;28;20078;-79
2023/04/06 05:54:49;;;;;;;8.10;5.70;;;2.60;99.90;;;;;;5092136;28;20035;-80
2023/04/06 05:57:16;;;;;;;8.27;5.32;;;2.70;99.90;;;;;;5092933;28;20479;-79
2023/04/06 05:59:42;;;;;;;10.40;5.95;;;2.70;99.90;;;;;;5109333;28;20096;-80
2023/04/06 06:02:08;;;;;;;9.20;6.18;;;2.80;99.90;;;;;;5092850;28;20027;-80
2023/04/06 06:04:37;;;;;;;10.40;6.03;;;2.80;99.90;;;;;;5092118;28;20052;-80
2023/04/06 06:07:03;;;;;;;12.38;5.72;;;2.90;99.90;;;;;;5109466;28;20285;-80
2023/04/06 06:09:29;;;;;;;10.82;6.05;;;3.00;99.90;;;;;;5075922;28;20035;-80
2023/04/06 06:11:55;;;;;;;9.23;5.88;;;3.10;99.90;;;;;;5109424;28;20043;-81
2023/04/06 06:14:21;;;;;;;8.35;5.38;;;3.10;99.90;;;;;;5109202;28;20134;-80
2023/04/06 06:16:47;;;;;;;8.57;5.18;;;3.20;99.90;;;;;;5075202;28;20042;-80
2023/04/06 06:19:13;;;;;;;12.73;6.07;;;3.30;99.90;;;;;;5109535;28;20035;-80
2023/04/06 06:21:39;;;;;;;8.10;5.30;;;3.40;99.90;;;;;;5073065;28;20028;-80
2023/04/06 06:24:05;;;;;;;9.93;5.85;;;3.50;99.90;;;;;;5109879;28;20269;-80
2023/04/06 06:26:31;;;;;;;8.88;5.65;;;3.60;99.90;;;;;;5091835;28;20031;-80
2023/04/06 06:28:57;;;;;;;11.23;6.50;;;3.70;99.90;;;;;;5075526;28;20040;-81
2023/04/06 06:31:22;;;;;;;9.20;5.93;;;3.80;99.90;;;;;;5092694;28;20676;-81
2023/04/06 06:33:51;;;;;;;9.07;6.15;;;3.90;99.90;;;;;;5092169;28;20043;-81
2023/04/06 06:36:18;;;;;;;9.20;5.25;;;4.10;99.90;;;;;;5092109;28;20048;-81
2023/04/06 06:38:44;;;;;;;10.40;5.82;;;4.20;99.90;;;;;;5075337;28;20058;-80
2023/04/06 06:41:12;;;;;;;;;;;4.40;99.90;;;;;;5109580;28;20040;-81
2023/04/06 06:43:38;;;;;;;8.57;5.18;;;4.50;99.90;;;;;;5092305;28;19916;-81
2023/04/06 06:46:05;;;;;;;9.80;6.50;;;4.60;99.90;;;;;;5092329;28;20070;-81
2023/04/06 06:48:34;;;;;;;9.48;5.90;;;4.80;99.90;;;;;;5092119;28;20084;-81
2023/04/06 06:51:00;;;;;;;10.23;5.90;;;4.90;99.90;;;;;;5110659;28;20064;-81
2023/04/06 06:53:25;;;;;;;10.95;6.20;;;4.90;99.90;;;;;;5077840;28;20048;-81
2023/04/06 06:55:51;;;;;;;10.70;6.00;;;5.00;99.90;;;;;;5112838;28;20390;-81
2023/04/06 06:58:20;;;;;;;8.73;6.13;;;5.30;99.90;;;;;;5096156;28;20036;-81
2023/04/06 07:00:46;;;;;;;10.52;6.22;;;5.30;99.90;;;;;;5095940;28;20487;-81
2023/04/06 07:03:12;;;;;;;9.75;6.00;;;5.50;99.90;;;;;;5079777;28;20498;-81
2023/04/06 07:05:38;;;;;;;8.40;5.90;;;6.00;99.90;;;;;;5112933;28;20043;-81
2023/04/06 07:08:04;;;;;;;10.48;6.15;;;6.60;99.90;;;;;;5096119;28;20039;-81
2023/04/06 07:10:30;;;;;;;7.97;5.60;;;7.10;99.90;;;;;;5113253;28;20517;-81
2023/04/06 07:12:56;;;;;;;9.77;5.60;;;7.50;99.90;;;;;;5113140;28;20040;-81
2023/04/06 07:15:21;;;;;;;9.40;5.38;;;7.90;99.90;;;;;;5113319;28;20449;-81
2023/04/06 07:17:47;;;;;;;8.57;5.28;;;8.20;99.90;;;;;;5095852;28;20038;-81
2023/04/06 07:20:13;;;;;;;8.20;5.75;;;8.30;99.90;;;;;;5095666;28;20118;-81
2023/04/06 07:22:40;;;;;;;8.77;5.68;;;8.70;99.90;;;;;;5112409;28;20071;-81
2023/04/06 07:25:06;;;;;;;10.57;5.85;;;9.00;99.90;;;;;;5112944;28;20040;-81
2023/04/06 07:27:32;;;;;;;10.77;5.53;;;9.00;99.90;;;;;;5112292;28;20036;-81
2023/04/06 07:29:57;;;;;;;10.35;5.90;;;9.10;99.90;;;;;;5095737;28;20453;-82
2023/04/06 07:32:23;;;;;;;9.85;5.95;;;9.30;99.90;;;;;;5095629;28;20582;-81
2023/04/06 07:34:49;;;;;;;8.70;5.75;;;9.40;99.90;;;;;;5094816;28;20085;-81
2023/04/06 07:37:15;;;;;;;11.02;5.82;;;9.60;99.90;;;;;;5078411;28;20135;-82
2023/04/06 07:39:41;;;;;;;9.60;5.70;;;10.00;99.90;;;;;;5095299;28;20063;-82
2023/04/06 07:42:06;;;;;;;9.13;5.28;;;10.10;99.90;;;;;;5095442;28;20040;-82
2023/04/06 07:44:32;;;;;;;8.50;5.18;;;10.50;99.90;;;;;;5095107;28;20780;-82
2023/04/06 07:46:58;;;;;;;9.85;6.22;;;10.50;99.30;;;;;;5112380;28;20038;-82
2023/04/06 07:49:24;;;;;;;9.88;6.28;;;10.80;99.50;;;;;;5094914;28;20066;-82
2023/04/06 07:51:49;;;;;;;7.85;5.43;;;11.00;98.70;;;;;;5095035;28;20032;-82
2023/04/06 07:54:15;;;;;;;7.10;5.43;;;11.00;98.50;;;;;;5094810;28;20043;-82
2023/04/06 07:56:41;;;;;;;8.70;5.95;;;11.30;98.70;;;;;;5077595;28;20440;-82
2023/04/06 07:59:07;;;;;;;7.75;5.50;;;11.40;98.60;;;;;;5094775;28;20039;-81
2023/04/06 08:01:32;;;;;;;10.48;6.22;;;11.70;98.40;;;;;;5095141;28;20108;-82
2023/04/06 08:03:58;;;;;;;8.57;5.85;;;11.70;98.10;;;;;;5058953;28;20031;-82
2023/04/06 08:06:24;;;;;;;11.60;6.60;;;11.70;97.20;;;;;;5111684;28;20046;-82
2023/04/06 08:08:50;;;;;;;10.98;6.03;;;11.80;97.50;;;;;;5077773;28;20114;-82
2023/04/06 08:11:16;;;;;;;10.73;6.25;;;11.90;98.10;;;;;;5111941;28;20122;-82
2023/04/06 08:13:42;;;;;;;8.52;6.05;;;12.20;97.20;;;;;;5094287;28;20038;-82
2023/04/06 08:16:07;;;;;;;10.32;5.68;;;12.30;96.50;;;;;;5111992;28;20036;-82
2023/04/06 08:18:35;;;;;;;8.18;5.80;;;12.40;97.50;;;;;;5096019;28;20101;-81
2023/04/06 08:21:01;;;;;;;11.05;5.63;;;12.50;97.00;;;;;;5095857;28;20043;-82
2023/04/06 08:23:27;;;;;;;11.25;5.90;;;12.50;97.20;;;;;;5096676;28;20502;-82
2023/04/06 08:25:54;;;;;;;8.43;6.07;;;12.90;95.90;;;;;;5096613;28;20039;-82
2023/04/06 08:28:21;;;;;;;9.80;6.68;;;13.10;96.20;;;;;;5096180;28;20074;-82
2023/04/06 08:30:47;;;;;;;9.32;6.35;;;13.30;95.70;;;;;;5095389;28;20039;-82
2023/04/06 08:33:13;;;;;;;9.55;5.95;;;13.30;95.90;;;;;;5077344;28;20039;-82
2023/04/06 08:35:38;;;;;;;8.73;6.07;;;13.20;95.20;;;;;;5110663;28;20088;-82
2023/04/06 08:38:04;;;;;;;9.95;6.43;;;13.40;95.70;;;;;;5077687;28;20126;-82
2023/04/06 08:40:35;;;;;;;9.10;5.68;;;13.70;95.20;;;;;;5110959;28;20040;-82
2023/04/06 08:43:03;;;;;;;8.00;6.15;;;14.00;95.30;;;;;;5095076;28;20441;-82
2023/04/06 08:45:30;;;;;;;8.98;6.13;;;14.30;94.70;;;;;;5111074;28;20058;-82
2023/04/06 08:48:01;;;;;;;8.35;6.13;;;14.20;93.50;;;;;;5110626;28;20206;-82
2023/04/06 08:50:30;;;;;;;9.82;6.25;;;14.50;94.20;;;;;;5110729;28;20054;-82
2023/04/06 08:52:55;;;;;;;8.57;6.22;;;14.50;93.50;;;;;;5093515;28;20027;-82
2023/04/06 08:55:22;;;;;;;8.73;5.95;;;14.40;92.80;;;;;;5059991;28;20105;-82
2023/04/06 08:57:48;;;;;;;9.57;5.88;;;14.70;92.70;;;;;;5093534;28;20122;-82
2023/04/06 09:00:18;;;;;;;7.82;6.05;;;14.80;93.70;;;;;;5093738;28;20031;-82
2023/04/06 09:02:45;;;;;;;7.18;5.57;;;14.70;93.20;;;;;;5093634;28;20043;-82
2023/04/06 09:05:12;;;;;;;20.85;7.03;;;15.30;92.30;;;;;;5093876;28;20190;-82
2023/04/06 09:07:38;;;;;;;9.30;6.28;;;15.20;92.70;;;;;;5093693;28;20437;-82
2023/04/06 09:10:08;;;;;;;8.38;5.90;;;15.40;92.80;;;;;;5094184;28;20031;-82
2023/04/06 09:12:34;;;;;;;8.40;6.18;;;15.60;91.60;;;;;;5076908;28;20039;-83
2023/04/06 09:15:01;;;;;;;9.80;6.10;;;15.80;91.60;;;;;;5091994;28;20042;-83
2023/04/06 09:17:36;;;;;;;9.20;6.10;;;16.10;90.70;;;;;;5110480;28;20047;-83
2023/04/06 09:20:03;;;;;;;8.43;6.55;;;16.20;91.20;;;;;;5093789;28;20034;-83
2023/04/06 09:22:39;;;;;;;10.18;6.40;;;16.00;90.30;;;;;;5093670;28;20499;-83
2023/04/06 09:25:06;;;;;;;10.43;6.57;;;16.10;91.00;;;;;;5110850;28;20421;-83
2023/04/06 09:27:35;;;;;;;;;;;15.60;90.70;;;;;;5110651;28;20043;-83
2023/04/06 09:30:15;;;;;;;10.60;6.55;;;15.20;91.50;;;;;;5092845;28;19916;-82
2023/04/06 09:32:48;;;;;;;9.82;6.50;;;15.20;91.60;;;;;;5092869;28;20421;-82
2023/04/06 09:35:15;;;;;;;8.80;6.57;;;14.80;91.90;;;;;;5109835;28;20042;-82
2023/04/06 09:37:41;;;;;;;;;;;15.00;92.10;;;;;;5093409;28;20039;-82
2023/04/06 09:40:07;;;;;;;8.95;6.38;;;14.90;91.60;;;;;;5107627;28;19938;-83
2023/04/06 09:42:36;;;;;;;10.10;6.65;;;14.50;92.00;;;;;;5076358;28;20034;-82
2023/04/06 09:45:03;;;;;;;11.48;6.85;;;14.60;92.20;;;;;;5109894;28;20039;-82
2023/04/06 09:47:30;;;;;;;10.57;6.65;;;14.90;91.30;;;;;;5109932;28;20062;-82
2023/04/06 09:49:58;;;;;;;9.85;6.80;;;14.90;91.80;;;;;;5109651;28;20047;-83
2023/04/06 09:52:30;;;;;;;12.52;8.38;;;14.90;91.90;;;;;;5110033;28;20354;-82
2023/04/06 09:55:01;;;;;;;13.20;7.75;;;14.90;91.20;;;;;;5092637;28;20096;-83
2023/04/06 09:57:34;;;;;;;11.77;7.60;;;14.90;90.80;;;;;;5109830;28;20153;-82
2023/04/06 10:00:11;;;;;;;12.50;7.40;;;14.80;90.70;;;;;;5092384;28;20473;-82
2023/04/06 10:03:02;;;;;;;12.98;7.68;;;14.60;91.10;;;;;;5109931;28;20046;-82
2023/04/06 10:05:50;;;;;;;13.32;7.88;;;14.60;90.80;;;;;;5092900;28;20391;-83
2023/04/06 10:08:17;;;;;;;13.48;7.45;;;14.50;90.60;;;;;;5107232;28;20075;-82
2023/04/06 10:10:43;;;;;;;12.02;7.80;;;14.40;90.60;;;;;;5075540;28;20092;-82
2023/04/06 10:13:11;;;;;;;13.27;8.82;;;14.50;90.20;;;;;;5109804;28;20035;-82
2023/04/06 10:15:38;;;;;;;14.52;8.73;;;14.60;90.00;;;;;;5109335;28;20057;-83
2023/04/06 10:18:04;;;;;;;15.30;9.00;;;14.80;90.30;;;;;;5110158;28;20035;-82
2023/04/06 10:20:45;;;;;;;12.13;7.22;;;14.90;89.90;;;;;;5110566;28;20089;-82
2023/04/06 10:23:23;;;;;;;15.52;8.75;;;14.90;90.00;;;;;;5110988;28;20031;-82
2023/04/06 10:25:54;;;;;;;14.23;8.43;;;15.10;90.60;;;;;;5092925;28;20032;-83
2023/04/06 10:28:20;;;;;;;14.35;8.35;;;15.30;89.30;;;;;;5094373;28;20054;-83
2023/04/06 10:30:46;;;;;;;13.35;8.40;;;15.40;89.40;;;;;;5077080;28;20035;-82
2023/04/06 10:33:20;;;;;;;17.00;9.63;;;15.30;90.20;;;;;;5109511;28;20040;-82
2023/04/06 10:35:46;;;;;;;18.30;9.65;;;15.40;89.20;;;;;;5091857;28;20051;-82
2023/04/06 10:38:19;;;;;;;15.30;9.07;;;15.40;89.90;;;;;;5075872;28;20032;-83
2023/04/06 10:40:48;;;;;;;15.63;10.07;;;15.60;88.90;;;;;;5093152;28;20031;-82
2023/04/06 10:43:21;;;;;;;21.15;9.63;;;15.60;88.70;;;;;;5076346;28;20488;-83
2023/04/06 10:45:56;;;;;;;16.15;9.80;;;15.70;89.10;;;;;;5109222;28;20107;-82
2023/04/06 10:48:23;;;;;;;15.73;9.45;;;15.70;89.00;;;;;;5109187;28;20043;-82
2023/04/06 10:50:51;;;;;;;16.42;9.75;;;15.90;89.60;;;;;;5092188;28;20040;-83
2023/04/06 10:53:24;;;;;;;19.25;9.82;;;16.00;89.60;;;;;;5109505;28;20028;-82
2023/04/06 10:55:55;;;;;;;19.45;10.85;;;16.20;89.00;;;;;;5091755;28;20401;-83
2023/04/06 10:58:25;;;;;;;18.83;10.70;;;16.30;87.70;;;;;;5092682;28;20484;-83
2023/04/06 11:00:51;;;;;;;22.13;12.30;;;16.30;87.80;;;;;;5108537;28;20107;-83
2023/04/06 11:03:17;;;;;;;21.88;12.88;;;16.30;86.80;;;;;;5092066;28;20039;-82
2023/04/06 11:05:50;;;;;;;25.92;11.52;;;16.10;88.00;;;;;;5109109;28;20127;-83
2023/04/06 11:08:42;;;;;;;20.42;11.55;;;15.60;88.70;;;;;;5075693;28;20126;-83
2023/04/06 11:11:15;;;;;;;21.58;12.75;;;15.70;88.50;;;;;;5070544;28;20535;-83
2023/04/06 11:13:42;;;;;;;23.95;13.23;;;15.60;87.70;;;;;;5092131;28;20040;-83
2023/04/06 11:16:19;;;;;;;25.95;14.63;;;15.60;88.50;;;;;;5091604;28;20039;-82
2023/04/06 11:19:02;;;;;;;22.52;12.23;;;15.70;87.90;;;;;;5075288;28;20480;-82
2023/04/06 11:21:43;;;;;;;26.63;13.15;;;15.60;88.00;;;;;;5110308;28;20070;-83
2023/04/06 11:24:11;;;;;;;20.95;11.40;;;15.80;88.40;;;;;;5093401;28;20439;-83
2023/04/06 11:26:38;;;;;;;26.33;14.77;;;16.20;88.40;;;;;;5077216;28;20040;-83
2023/04/06 11:29:05;;;;;;;24.55;13.40;;;16.40;87.80;;;;;;5093545;28;20027;-83
2023/04/06 11:31:31;;;;;;;25.77;13.57;;;16.60;87.40;;;;;;5093300;28;20058;-83
2023/04/06 11:33:57;;;;;;;24.33;13.13;;;16.60;86.20;;;;;;5075408;28;20036;-83
2023/04/06 11:36:23;;;;;;;27.05;15.25;;;16.30;87.30;;;;;;5075273;28;20048;-82
2023/04/06 11:38:49;;;;;;;22.65;13.40;;;16.10;87.40;;;;;;5079155;28;20368;-82
2023/04/06 11:41:15;;;;;;;19.38;11.40;;;16.10;87.60;;;;;;5097411;28;20031;-82
2023/04/06 11:43:47;;;;;;;17.42;10.57;;;16.10;87.10;;;;;;5080749;28;20356;-82
2023/04/06 11:46:19;;;;;;;18.95;11.00;;;16.20;86.10;;;;;;5096965;28;20040;-82
2023/04/06 11:48:45;;;;;;;18.58;11.57;;;16.10;87.20;;;;;;5113806;28;20039;-82
2023/04/06 11:51:11;;;;;;;23.02;13.02;;;16.00;88.10;;;;;;5112864;28;20441;-82
2023/04/06 11:53:45;;;;;;;21.23;12.43;;;15.80;88.80;;;;;;5112336;28;20039;-82
2023/04/06 11:56:22;;;;;;;21.60;12.80;;;15.80;88.30;;;;;;5111842;28;20169;-82
2023/04/06 11:58:47;;;;;;;23.00;12.77;;;15.80;87.70;;;;;;5112303;28;20372;-82
2023/04/06 12:01:13;;;;;;;26.42;13.05;;;15.70;89.00;;;;;;5095581;28;20088;-82
2023/04/06 12:03:39;;;;;;;19.48;11.77;;;15.70;89.80;;;;;;5078346;28;20035;-82
2023/04/06 12:06:05;;;;;;;22.70;12.57;;;15.60;88.90;;;;;;5094986;28;20079;-82
2023/04/06 12:08:30;;;;;;;23.08;13.05;;;15.60;89.60;;;;;;5095322;28;20051;-82
2023/04/06 12:10:56;;;;;;;23.98;12.68;;;15.70;88.70;;;;;;5094680;28;20039;-82
2023/04/06 12:13:22;;;;;;;25.55;13.57;;;15.80;89.00;;;;;;5095049;28;20082;-82
2023/04/06 12:15:48;;;;;;;22.45;12.88;;;15.90;88.60;;;;;;5111861;28;20044;-82
2023/04/06 12:18:13;;;;;;;21.58;11.43;;;16.00;88.10;;;;;;5076199;28;20044;-82
2023/04/06 12:20:39;;;;;;;23.35;13.75;;;15.60;88.30;;;;;;5111697;28;20039;-82
2023/04/06 12:23:06;;;;;;;21.17;12.20;;;15.50;86.90;;;;;;5094942;28;20384;-82
2023/04/06 12:25:31;;;;;;;24.70;12.40;;;15.50;88.00;;;;;;5111494;28;20036;-82
2023/04/06 12:27:57;;;;;;;21.95;11.82;;;15.40;88.10;;;;;;5077438;28;20414;-82
2023/04/06 12:30:23;;;;;;;20.80;11.60;;;15.40;86.90;;;;;;5077706;28;20126;-82
2023/04/06 12:32:50;;;;;;;25.98;13.80;;;15.10;86.40;;;;;;5077602;28;20459;-82
2023/04/06 12:35:16;;;;;;;20.17;11.95;;;15.10;87.60;;;;;;5094341;28;20067;-82
2023/04/06 12:37:42;;;;;;;21.92;12.38;;;15.00;88.10;;;;;;5074879;28;20136;-82
2023/04/06 12:40:10;;;;;;;23.38;12.75;;;14.90;87.40;;;;;;5111428;28;20040;-83
2023/04/06 12:42:36;;;;;;;21.83;12.07;;;15.00;88.70;;;;;;5077569;28;20036;-82
2023/04/06 12:45:02;;;;;;;23.23;12.48;;;15.00;88.20;;;;;;5108365;28;20035;-82
2023/04/06 12:47:28;;;;;;;24.88;13.23;;;15.10;88.70;;;;;;5077474;28;20406;-82